Time;durP1;ratioP1;P1;durP2;ratioP2;P2;SDS_P1;SDS_P2;PMS_P1;PMS_P2;Temp;Humidity;BMP_temperature;BMP_pressure;BME280_temperature;BME280_humidity;BME280_pressure;Samples;Min_cycle;Max_cycle;Signal;HPM_P1;HPM_P2
2021/09/19 00:00:11;;;;;;;3.72;1.77;;;22.60;96.70;;;;;;4910151;29;20103;-77
2021/09/19 00:02:41;;;;;;;4.60;1.75;;;22.50;96.70;;;;;;4924443;29;20048;-77
2021/09/19 00:05:10;;;;;;;5.50;1.63;;;22.50;96.70;;;;;;4909828;29;20044;-77
2021/09/19 00:07:39;;;;;;;3.60;1.70;;;22.60;96.70;;;;;;4909730;29;20043;-77
2021/09/19 00:10:10;;;;;;;3.38;1.77;;;22.50;96.70;;;;;;4925450;29;20095;-77
2021/09/19 00:12:39;;;;;;;4.18;2.00;;;22.50;96.70;;;;;;4928437;29;20039;-78
2021/09/19 00:15:11;;;;;;;4.82;1.70;;;22.60;96.70;;;;;;4920313;29;20083;-77
2021/09/19 00:17:41;;;;;;;4.82;1.80;;;22.60;96.70;;;;;;4922670;29;20039;-78
2021/09/19 00:20:11;;;;;;;3.90;1.77;;;22.50;96.70;;;;;;4928022;29;20044;-76
2021/09/19 00:22:39;;;;;;;5.07;2.10;;;22.50;96.70;;;;;;4927937;29;20688;-78
2021/09/19 00:25:11;;;;;;;4.57;1.95;;;22.50;96.70;;;;;;4929687;29;20052;-77
2021/09/19 00:27:39;;;;;;;4.72;2.20;;;22.70;96.70;;;;;;4927952;29;20054;-77
2021/09/19 00:30:10;;;;;;;3.00;1.90;;;22.60;96.70;;;;;;4923388;29;20040;-77
2021/09/19 00:32:40;;;;;;;3.85;1.70;;;22.60;96.70;;;;;;4925193;29;20139;-77
2021/09/19 00:35:09;;;;;;;2.95;2.03;;;22.40;96.70;;;;;;4930252;29;20683;-78
2021/09/19 00:37:38;;;;;;;3.97;2.05;;;22.40;96.70;;;;;;4943530;28;20050;-77
2021/09/19 00:40:08;;;;;;;3.53;1.90;;;22.30;96.70;;;;;;4924667;29;20052;-77
2021/09/19 00:42:37;;;;;;;6.25;1.98;;;22.30;96.70;;;;;;4925579;29;20036;-77
2021/09/19 00:45:08;;;;;;;3.10;1.88;;;22.30;96.70;;;;;;4928970;29;20048;-79
2021/09/19 00:47:37;;;;;;;3.17;1.95;;;22.30;96.70;;;;;;4933495;29;20043;-77
2021/09/19 00:50:10;;;;;;;4.22;2.33;;;22.20;96.70;;;;;;4929288;29;20039;-78
2021/09/19 00:52:40;;;;;;;4.68;2.08;;;22.20;96.70;;;;;;4909177;29;20446;-77
2021/09/19 00:55:11;;;;;;;4.43;2.20;;;22.20;96.70;;;;;;4941208;28;20063;-77
2021/09/19 00:57:41;;;;;;;4.80;2.47;;;22.20;96.70;;;;;;4931220;29;20056;-77
2021/09/19 01:00:12;;;;;;;3.60;2.00;;;22.20;96.70;;;;;;4929982;29;20070;-77
2021/09/19 01:02:41;;;;;;;3.75;2.03;;;22.20;96.70;;;;;;4946056;28;20052;-77
2021/09/19 01:05:13;;;;;;;5.40;2.35;;;22.20;96.70;;;;;;4913993;29;20533;-77
2021/09/19 01:07:42;;;;;;;3.40;1.85;;;22.20;96.70;;;;;;4942474;28;20071;-77
2021/09/19 01:10:12;;;;;;;3.65;2.00;;;22.00;96.70;;;;;;4930468;29;20052;-77
2021/09/19 01:12:41;;;;;;;4.45;1.83;;;21.90;96.70;;;;;;4943529;28;20039;-77
2021/09/19 01:15:11;;;;;;;2.90;1.63;;;21.90;96.70;;;;;;4912293;29;20059;-77
2021/09/19 01:17:41;;;;;;;3.17;1.48;;;21.90;96.70;;;;;;4934476;29;20051;-77
2021/09/19 01:20:15;;;;;;;5.57;1.98;;;22.00;96.70;;;;;;4928547;29;20075;-77
2021/09/19 01:22:45;;;;;;;3.50;1.80;;;22.00;96.70;;;;;;4931895;29;20044;-77
2021/09/19 01:25:16;;;;;;;2.47;1.48;;;22.00;96.70;;;;;;4931061;29;20585;-77
2021/09/19 01:27:45;;;;;;;3.58;1.83;;;22.00;96.70;;;;;;4934932;29;20047;-77
2021/09/19 01:30:14;;;;;;;3.97;2.00;;;22.00;96.70;;;;;;4931432;29;20526;-77
2021/09/19 01:32:43;;;;;;;4.43;1.58;;;21.90;96.70;;;;;;4926165;29;20549;-77
2021/09/19 01:35:11;;;;;;;4.82;1.77;;;21.80;96.70;;;;;;4934524;29;20058;-77
2021/09/19 01:37:39;;;;;;;3.85;1.50;;;21.70;96.70;;;;;;4928254;29;20580;-77
2021/09/19 01:40:10;;;;;;;4.07;1.48;;;21.70;96.70;;;;;;4947803;28;20405;-77
2021/09/19 01:42:40;;;;;;;2.92;1.63;;;21.60;96.70;;;;;;4934560;28;20052;-76
2021/09/19 01:45:10;;;;;;;5.35;1.70;;;21.60;96.70;;;;;;4926091;29;20462;-77
2021/09/19 01:47:38;;;;;;;4.50;1.77;;;21.50;96.70;;;;;;4911278;29;20127;-77
2021/09/19 01:50:08;;;;;;;4.18;1.60;;;21.50;96.70;;;;;;4922327;29;20139;-77
2021/09/19 01:52:36;;;;;;;3.25;1.60;;;21.50;96.70;;;;;;4926649;29;20043;-76
2021/09/19 01:55:05;;;;;;;5.93;1.80;;;21.60;96.70;;;;;;4944392;28;20044;-77
2021/09/19 01:57:33;;;;;;;4.80;1.92;;;21.60;96.70;;;;;;4928107;29;20054;-77
2021/09/19 02:00:05;;;;;;;3.20;1.52;;;21.60;96.70;;;;;;4910903;29;20078;-77
2021/09/19 02:02:34;;;;;;;5.95;1.60;;;21.60;96.70;;;;;;4928165;29;20040;-77
2021/09/19 02:05:04;;;;;;;3.08;1.63;;;21.60;96.70;;;;;;4929574;29;20055;-77
2021/09/19 02:07:35;;;;;;;3.40;1.88;;;21.60;96.70;;;;;;4927174;29;20043;-77
2021/09/19 02:10:07;;;;;;;5.13;1.90;;;21.50;96.70;;;;;;4931088;29;20056;-76
2021/09/19 02:12:35;;;;;;;2.40;1.50;;;21.50;96.70;;;;;;4930704;29;20501;-77
2021/09/19 02:15:07;;;;;;;2.22;1.52;;;21.50;96.70;;;;;;4927907;29;20055;-77
2021/09/19 02:17:36;;;;;;;3.00;1.40;;;21.50;96.70;;;;;;4932338;29;20027;-77
2021/09/19 02:20:06;;;;;;;2.88;1.40;;;21.40;96.70;;;;;;4928074;29;20154;-77
2021/09/19 02:22:34;;;;;;;3.15;1.27;;;21.40;96.70;;;;;;4937736;28;20139;-77
2021/09/19 02:25:04;;;;;;;4.30;1.30;;;21.40;96.70;;;;;;4924298;29;20044;-77
2021/09/19 02:27:32;;;;;;;2.75;1.30;;;21.40;96.70;;;;;;4942270;28;20058;-77
2021/09/19 02:30:01;;;;;;;3.40;1.27;;;21.30;96.70;;;;;;4928298;29;20047;-77
2021/09/19 02:32:31;;;;;;;2.63;1.20;;;21.40;96.70;;;;;;4928239;29;20043;-77
2021/09/19 02:34:59;;;;;;;4.05;1.58;;;21.30;96.70;;;;;;4933563;29;20058;-77
2021/09/19 02:37:27;;;;;;;4.72;1.60;;;21.30;96.70;;;;;;4927739;29;20039;-75
2021/09/19 02:39:55;;;;;;;2.88;1.73;;;21.40;96.70;;;;;;4907289;29;20401;-75
2021/09/19 02:42:23;;;;;;;2.42;1.38;;;21.40;96.70;;;;;;4926523;29;20154;-74
2021/09/19 02:44:51;;;;;;;3.35;1.40;;;21.40;96.70;;;;;;4931662;29;20048;-75
2021/09/19 02:47:19;;;;;;;2.28;1.35;;;21.40;96.70;;;;;;4927637;29;20494;-75
2021/09/19 02:49:48;;;;;;;3.10;1.10;;;21.30;96.70;;;;;;4925300;29;20051;-75
2021/09/19 02:52:16;;;;;;;4.03;1.30;;;21.30;96.70;;;;;;4931287;29;20688;-74
2021/09/19 02:54:44;;;;;;;2.45;1.27;;;21.20;96.70;;;;;;4924658;29;20102;-74
2021/09/19 02:57:12;;;;;;;3.20;1.33;;;21.10;96.70;;;;;;4924842;29;20048;-75
2021/09/19 02:59:41;;;;;;;1.98;1.30;;;21.00;96.70;;;;;;4925732;29;20417;-75
2021/09/19 03:02:09;;;;;;;2.35;1.10;;;20.90;96.70;;;;;;4932770;29;20066;-74
2021/09/19 03:04:37;;;;;;;2.00;1.50;;;20.90;96.70;;;;;;4926476;29;20035;-75
2021/09/19 03:07:06;;;;;;;3.88;1.30;;;21.00;96.70;;;;;;4932813;29;20053;-74
2021/09/19 03:09:34;;;;;;;3.60;1.85;;;21.00;96.70;;;;;;4923464;29;20056;-75
2021/09/19 03:12:03;;;;;;;2.15;1.30;;;21.10;96.70;;;;;;4928068;29;20047;-75
2021/09/19 03:14:32;;;;;;;2.10;1.48;;;21.10;96.70;;;;;;4925591;29;20123;-77
2021/09/19 03:17:01;;;;;;;2.28;1.45;;;21.00;96.70;;;;;;4907557;29;20059;-77
2021/09/19 03:19:29;;;;;;;2.65;1.35;;;21.00;96.70;;;;;;4925861;29;20044;-77
2021/09/19 03:21:57;;;;;;;3.10;1.30;;;21.00;96.70;;;;;;4927240;29;20039;-78
2021/09/19 03:24:26;;;;;;;2.78;1.70;;;21.00;96.70;;;;;;4925009;29;20146;-77
2021/09/19 03:26:54;;;;;;;6.05;1.38;;;21.10;96.70;;;;;;4931240;28;20071;-77
2021/09/19 03:29:22;;;;;;;2.83;1.60;;;21.20;96.70;;;;;;4929120;29;20175;-77
2021/09/19 03:31:50;;;;;;;4.65;1.77;;;21.20;96.70;;;;;;4925617;29;20051;-77
2021/09/19 03:34:18;;;;;;;3.80;1.58;;;21.30;96.70;;;;;;4932213;29;20523;-77
2021/09/19 03:36:46;;;;;;;3.17;1.45;;;21.20;96.70;;;;;;4926871;29;20771;-77
2021/09/19 03:39:14;;;;;;;3.47;1.23;;;21.20;96.70;;;;;;4910520;29;20498;-77
2021/09/19 03:41:43;;;;;;;3.60;1.20;;;21.30;96.70;;;;;;4934214;28;20151;-77
2021/09/19 03:44:12;;;;;;;3.10;1.30;;;21.20;96.70;;;;;;4924695;29;20047;-77
2021/09/19 03:46:39;;;;;;;2.92;1.58;;;21.20;96.70;;;;;;4927054;29;20042;-77
2021/09/19 03:49:07;;;;;;;4.28;1.38;;;21.20;96.70;;;;;;4924736;29;20118;-77
2021/09/19 03:51:35;;;;;;;3.70;1.83;;;21.10;96.70;;;;;;4930412;29;20031;-77
2021/09/19 03:54:03;;;;;;;3.15;1.70;;;21.10;96.70;;;;;;4920290;29;20044;-77
2021/09/19 03:56:31;;;;;;;4.25;1.85;;;21.00;96.70;;;;;;4925218;29;20059;-77
2021/09/19 03:59:01;;;;;;;2.08;1.27;;;20.90;96.70;;;;;;4927982;29;20043;-77
2021/09/19 04:01:29;;;;;;;3.67;1.50;;;21.00;96.70;;;;;;4926416;29;20051;-77
2021/09/19 04:03:57;;;;;;;4.97;1.77;;;21.10;96.70;;;;;;4933729;29;20513;-77
2021/09/19 04:06:26;;;;;;;2.70;1.33;;;21.00;96.70;;;;;;4927417;29;20048;-77
2021/09/19 04:08:53;;;;;;;5.68;1.40;;;21.00;96.70;;;;;;4933309;29;20063;-77
2021/09/19 04:11:21;;;;;;;3.25;1.23;;;20.90;96.70;;;;;;4938335;28;20126;-77
2021/09/19 04:13:50;;;;;;;3.45;1.70;;;20.80;96.70;;;;;;4935232;29;20055;-77
2021/09/19 04:16:19;;;;;;;3.75;1.50;;;20.70;96.70;;;;;;4932151;29;20150;-77
2021/09/19 04:18:47;;;;;;;3.72;1.50;;;20.60;96.70;;;;;;4934176;29;20113;-77
2021/09/19 04:21:15;;;;;;;2.75;1.50;;;20.60;96.70;;;;;;4913407;29;20043;-77
2021/09/19 04:23:43;;;;;;;2.65;1.45;;;20.60;96.70;;;;;;4936789;28;20054;-77
2021/09/19 04:26:11;;;;;;;4.30;1.40;;;20.70;96.70;;;;;;4926748;29;20040;-76
2021/09/19 04:28:39;;;;;;;2.47;1.40;;;20.80;96.70;;;;;;4931548;29;20039;-77
2021/09/19 04:31:07;;;;;;;2.40;1.20;;;20.70;96.70;;;;;;4913027;29;20235;-77
2021/09/19 04:33:37;;;;;;;3.80;1.75;;;20.70;96.70;;;;;;4932168;29;20063;-77
2021/09/19 04:36:05;;;;;;;3.15;1.33;;;20.70;96.70;;;;;;4929557;29;20055;-77
2021/09/19 04:38:33;;;;;;;3.55;1.55;;;20.60;96.70;;;;;;4938920;28;20047;-77
2021/09/19 04:41:01;;;;;;;3.42;1.38;;;20.80;96.70;;;;;;4927668;29;20044;-77
2021/09/19 04:43:29;;;;;;;1.35;1.23;;;20.80;96.70;;;;;;4935541;29;20126;-77
2021/09/19 04:45:57;;;;;;;5.43;1.60;;;20.80;96.70;;;;;;4926634;29;20722;-77
2021/09/19 04:48:25;;;;;;;1.30;1.10;;;20.80;96.70;;;;;;4911650;29;20413;-77
2021/09/19 04:50:54;;;;;;;3.95;1.70;;;20.80;96.70;;;;;;4932164;29;20039;-77
2021/09/19 04:53:23;;;;;;;3.58;1.40;;;20.70;96.70;;;;;;4913059;29;20048;-77
2021/09/19 04:55:51;;;;;;;4.50;2.08;;;20.70;96.70;;;;;;4936304;28;20043;-77
2021/09/19 04:58:19;;;;;;;6.07;2.10;;;20.70;96.70;;;;;;4927279;29;20532;-77
2021/09/19 05:00:47;;;;;;;4.28;1.95;;;20.70;96.70;;;;;;4933162;29;20509;-77
2021/09/19 05:03:15;;;;;;;4.10;2.03;;;20.80;96.70;;;;;;4928605;29;20056;-77
2021/09/19 05:05:43;;;;;;;4.22;2.20;;;20.80;96.70;;;;;;4930438;29;20039;-77
2021/09/19 05:08:13;;;;;;;4.90;1.90;;;20.70;96.70;;;;;;4928349;29;20048;-77
2021/09/19 05:10:41;;;;;;;5.63;2.05;;;20.60;96.70;;;;;;4932743;29;20054;-77
2021/09/19 05:13:10;;;;;;;7.22;2.20;;;20.60;96.70;;;;;;4932856;28;20581;-77
2021/09/19 05:15:38;;;;;;;4.53;1.80;;;20.70;96.70;;;;;;4932562;29;20035;-77
2021/09/19 05:18:06;;;;;;;3.85;1.85;;;20.80;96.70;;;;;;4941895;28;20111;-77
2021/09/19 05:20:34;;;;;;;3.40;1.50;;;20.90;96.70;;;;;;4922965;29;20040;-77
2021/09/19 05:23:03;;;;;;;4.85;1.90;;;20.80;96.70;;;;;;4933502;29;20032;-77
2021/09/19 05:25:33;;;;;;;7.07;1.90;;;20.70;96.70;;;;;;4930576;29;20046;-77
2021/09/19 05:28:01;;;;;;;3.15;1.98;;;20.70;96.70;;;;;;4929467;29;20043;-77
2021/09/19 05:30:29;;;;;;;3.47;1.67;;;20.60;96.70;;;;;;4948936;28;20124;-78
2021/09/19 05:32:58;;;;;;;5.60;1.70;;;20.60;96.70;;;;;;4941516;28;20048;-77
2021/09/19 05:35:26;;;;;;;4.22;1.90;;;20.60;96.70;;;;;;4927053;29;20044;-78
2021/09/19 05:37:54;;;;;;;4.45;1.95;;;20.70;96.70;;;;;;4926141;29;20546;-77
2021/09/19 05:40:23;;;;;;;3.65;1.40;;;20.70;96.70;;;;;;4936042;29;20565;-78
2021/09/19 05:42:52;;;;;;;3.97;1.60;;;20.80;96.70;;;;;;4926671;29;20054;-77
2021/09/19 05:45:21;;;;;;;2.25;1.58;;;20.80;96.70;;;;;;4927567;29;20572;-78
2021/09/19 05:47:49;;;;;;;3.47;1.52;;;20.80;96.70;;;;;;4930797;29;20039;-77
2021/09/19 05:50:17;;;;;;;2.97;1.50;;;20.90;96.70;;;;;;4930846;28;20039;-77
2021/09/19 05:52:45;;;;;;;2.70;1.70;;;20.80;96.70;;;;;;4924476;29;20119;-78
2021/09/19 05:55:14;;;;;;;4.10;1.60;;;20.80;96.70;;;;;;4926880;29;20502;-77
2021/09/19 05:57:42;;;;;;;5.32;1.85;;;20.80;96.70;;;;;;4909169;29;20055;-77
2021/09/19 06:00:13;;;;;;;2.97;1.73;;;20.80;96.70;;;;;;4928416;29;20043;-77
2021/09/19 06:02:41;;;;;;;4.15;1.55;;;20.80;96.70;;;;;;4938523;28;20071;-77
2021/09/19 06:05:11;;;;;;;5.82;2.55;;;20.80;96.70;;;;;;4938041;29;20057;-77
2021/09/19 06:07:40;;;;;;;2.53;1.70;;;20.80;96.70;;;;;;4925268;29;20046;-77
2021/09/19 06:10:09;;;;;;;3.83;2.20;;;20.90;96.70;;;;;;4923095;29;20070;-77
2021/09/19 06:12:38;;;;;;;6.45;2.13;;;20.90;96.70;;;;;;4920702;29;20095;-77
2021/09/19 06:15:08;;;;;;;5.35;1.88;;;21.00;96.70;;;;;;4928840;29;20048;-77
2021/09/19 06:17:38;;;;;;;4.78;2.65;;;20.90;96.70;;;;;;4925295;29;20127;-76
2021/09/19 06:20:07;;;;;;;4.15;2.17;;;20.90;96.70;;;;;;4929369;29;20114;-76
2021/09/19 06:22:36;;;;;;;5.75;2.15;;;21.00;96.70;;;;;;4927633;29;20528;-76
2021/09/19 06:25:06;;;;;;;3.67;2.08;;;21.10;96.70;;;;;;4927681;29;20067;-76
2021/09/19 06:27:34;;;;;;;4.07;2.03;;;21.10;96.70;;;;;;4924776;29;20047;-77
2021/09/19 06:30:04;;;;;;;4.45;2.67;;;21.20;96.70;;;;;;4933441;29;20430;-77
2021/09/19 06:32:32;;;;;;;10.98;5.05;;;21.30;96.70;;;;;;4923869;29;20055;-76
2021/09/19 06:35:03;;;;;;;10.27;5.85;;;21.20;96.70;;;;;;4926753;29;23555;-77
2021/09/19 06:37:32;;;;;;;8.70;5.45;;;21.20;96.70;;;;;;4926781;29;20486;-77
2021/09/19 06:40:01;;;;;;;9.23;4.68;;;21.20;96.70;;;;;;4924969;29;20406;-76
2021/09/19 06:42:29;;;;;;;10.38;7.75;;;21.30;96.70;;;;;;4930999;29;20043;-76
2021/09/19 06:44:58;;;;;;;11.88;8.48;;;21.30;96.70;;;;;;4925094;29;20055;-77
2021/09/19 06:47:26;;;;;;;8.60;7.28;;;21.40;96.70;;;;;;4926522;29;20035;-77
2021/09/19 06:49:58;;;;;;;26.13;20.45;;;21.50;96.70;;;;;;4924660;29;20067;-76
2021/09/19 06:52:30;;;;;;;22.30;17.42;;;21.70;96.70;;;;;;4927189;29;20130;-76
2021/09/19 06:54:59;;;;;;;16.50;12.23;;;21.80;96.70;;;;;;4927030;29;20111;-76
2021/09/19 06:57:28;;;;;;;10.10;6.75;;;21.90;96.70;;;;;;4929645;29;20050;-75
2021/09/19 06:59:56;;;;;;;9.70;6.05;;;21.90;96.70;;;;;;4916383;29;20047;-76
2021/09/19 07:02:24;;;;;;;7.93;4.95;;;21.90;96.70;;;;;;4931890;29;20508;-76
2021/09/19 07:04:53;;;;;;;5.97;3.80;;;21.80;96.70;;;;;;4939830;29;20054;-76
2021/09/19 07:07:22;;;;;;;7.90;5.68;;;21.90;96.70;;;;;;4913069;29;20495;-77
2021/09/19 07:09:51;;;;;;;9.20;5.80;;;21.70;96.70;;;;;;4908689;29;20069;-76
2021/09/19 07:12:20;;;;;;;10.50;7.45;;;21.60;96.70;;;;;;4923682;29;20431;-76
2021/09/19 07:14:48;;;;;;;7.72;4.95;;;21.60;96.70;;;;;;4926545;29;20039;-74
2021/09/19 07:17:17;;;;;;;9.25;4.93;;;21.50;96.70;;;;;;4924223;29;20066;-74
2021/09/19 07:19:45;;;;;;;7.82;3.83;;;21.50;96.70;;;;;;4924383;29;20040;-77
2021/09/19 07:22:13;;;;;;;4.22;2.90;;;21.40;96.70;;;;;;4930813;29;20134;-76
2021/09/19 07:24:42;;;;;;;5.82;2.78;;;21.30;96.70;;;;;;4921845;29;20098;-79
2021/09/19 07:27:12;;;;;;;4.70;2.13;;;21.30;96.70;;;;;;4929119;29;20506;-73
2021/09/19 07:29:41;;;;;;;5.78;1.70;;;21.30;96.70;;;;;;4926935;29;20135;-72
2021/09/19 07:32:12;;;;;;;3.92;1.88;;;21.30;96.70;;;;;;4937214;28;20490;-72
2021/09/19 07:34:42;;;;;;;3.42;1.63;;;21.40;96.70;;;;;;4925583;29;20071;-72
2021/09/19 07:37:10;;;;;;;4.28;1.80;;;21.50;96.70;;;;;;4912290;29;20211;-73
2021/09/19 07:39:39;;;;;;;3.97;2.05;;;21.50;96.70;;;;;;4923014;29;20070;-72
2021/09/19 07:42:08;;;;;;;9.50;4.15;;;21.40;96.70;;;;;;4928482;29;20142;-73
2021/09/19 07:44:39;;;;;;;14.23;5.38;;;21.20;96.70;;;;;;4925965;29;20055;-75
2021/09/19 07:47:08;;;;;;;5.68;3.88;;;20.90;96.70;;;;;;4932456;29;20051;-75
2021/09/19 07:49:39;;;;;;;8.07;4.55;;;20.80;96.70;;;;;;4930308;29;20410;-76
2021/09/19 07:52:09;;;;;;;7.82;4.40;;;20.80;96.70;;;;;;4926667;29;20142;-76
2021/09/19 07:54:37;;;;;;;8.77;5.10;;;20.70;96.70;;;;;;4931483;29;20050;-76
2021/09/19 07:57:05;;;;;;;12.35;6.45;;;20.70;96.70;;;;;;4924725;29;20056;-76
2021/09/19 07:59:34;;;;;;;9.65;5.53;;;20.70;96.70;;;;;;4932483;29;20142;-77
2021/09/19 08:02:04;;;;;;;9.15;5.95;;;20.40;96.70;;;;;;4930200;29;20043;-77
2021/09/19 08:04:33;;;;;;;9.18;4.32;;;20.20;96.70;;;;;;4928289;29;20051;-78
2021/09/19 08:07:01;;;;;;;7.45;3.75;;;20.10;96.70;;;;;;4928237;29;20130;-79
2021/09/19 08:09:30;;;;;;;4.20;2.15;;;20.00;96.70;;;;;;4933158;29;20079;-79
2021/09/19 08:11:58;;;;;;;5.93;1.73;;;19.90;96.70;;;;;;4945696;28;20118;-76
2021/09/19 08:14:27;;;;;;;7.28;1.67;;;19.60;96.70;;;;;;4926507;29;20078;-77
2021/09/19 08:16:57;;;;;;;4.85;2.13;;;19.60;96.70;;;;;;4927056;29;20098;-78
2021/09/19 08:19:27;;;;;;;4.70;2.00;;;19.60;96.70;;;;;;4924870;29;20044;-79
2021/09/19 08:21:57;;;;;;;3.13;1.80;;;19.60;96.70;;;;;;4939474;28;20494;-80
2021/09/19 08:24:25;;;;;;;3.03;1.83;;;19.60;96.70;;;;;;4927575;29;20138;-77
2021/09/19 08:26:54;;;;;;;3.72;1.90;;;19.70;96.70;;;;;;4927515;29;20417;-78
2021/09/19 08:29:23;;;;;;;4.30;1.90;;;19.70;96.70;;;;;;4929443;29;20398;-76
2021/09/19 08:31:53;;;;;;;3.25;1.83;;;19.70;96.70;;;;;;4928453;29;20047;-77
2021/09/19 08:34:22;;;;;;;2.38;1.40;;;19.80;96.70;;;;;;4911536;29;20047;-76
2021/09/19 08:36:52;;;;;;;4.28;1.30;;;19.90;96.70;;;;;;4925202;29;20036;-76
2021/09/19 08:39:24;;;;;;;4.00;1.88;;;20.00;96.70;;;;;;4943477;28;20055;-76
2021/09/19 08:41:54;;;;;;;2.13;1.08;;;20.00;96.70;;;;;;4941419;29;20130;-75
2021/09/19 08:44:22;;;;;;;4.68;1.83;;;20.00;96.70;;;;;;4927307;29;20317;-76
2021/09/19 08:46:50;;;;;;;2.85;1.58;;;20.00;96.70;;;;;;4927869;29;20052;-75
2021/09/19 08:49:19;;;;;;;2.35;1.30;;;20.00;96.70;;;;;;4925942;29;20098;-75
2021/09/19 08:51:47;;;;;;;4.57;1.70;;;20.10;96.70;;;;;;4926421;29;20051;-75
2021/09/19 08:54:19;;;;;;;2.72;1.45;;;20.20;96.70;;;;;;4928778;29;20036;-76
2021/09/19 08:56:47;;;;;;;4.40;1.88;;;20.30;96.70;;;;;;4942198;28;20139;-77
2021/09/19 08:59:16;;;;;;;4.00;1.38;;;20.50;96.70;;;;;;4924217;29;20047;-76
2021/09/19 09:01:59;;;;;;;2.88;1.23;;;20.80;96.70;;;;;;4924101;29;20488;-77
2021/09/19 09:04:29;;;;;;;4.32;1.45;;;21.00;96.70;;;;;;4939487;29;20048;-76
2021/09/19 09:06:58;;;;;;;1.92;0.93;;;21.40;96.70;;;;;;4941666;28;20044;-76
2021/09/19 09:09:28;;;;;;;3.00;1.10;;;21.60;96.70;;;;;;4921883;29;20705;-75
2021/09/19 09:12:01;;;;;;;1.55;0.77;;;21.70;96.70;;;;;;4945727;28;20052;-74
2021/09/19 09:14:29;;;;;;;3.65;1.30;;;21.50;96.70;;;;;;4926548;29;20044;-76
2021/09/19 09:17:11;;;;;;;2.30;0.90;;;21.30;96.70;;;;;;4906772;29;20048;-75
2021/09/19 09:19:40;;;;;;;2.13;1.08;;;21.40;96.70;;;;;;4925014;29;20043;-75
2021/09/19 09:22:12;;;;;;;2.42;0.80;;;21.50;96.70;;;;;;4929531;29;20325;-75
2021/09/19 09:24:43;;;;;;;3.15;0.90;;;21.60;96.70;;;;;;4924823;29;20126;-75
2021/09/19 09:27:19;;;;;;;7.25;4.80;;;21.70;96.70;;;;;;4925840;29;20047;-75
2021/09/19 09:30:13;;;;;;;13.93;10.70;;;21.80;96.70;;;;;;4922368;29;20040;-75
2021/09/19 09:33:00;;;;;;;35.63;21.90;;;21.80;96.70;;;;;;4921687;29;20052;-75
2021/09/19 09:35:33;;;;;;;16.65;12.65;;;22.00;96.70;;;;;;4927414;29;20059;-73
2021/09/19 09:38:16;;;;;;;35.03;29.95;;;22.20;96.70;;;;;;4946192;28;20068;-75
2021/09/19 09:40:46;;;;;;;19.02;13.35;;;22.20;96.70;;;;;;4936397;28;20058;-74
2021/09/19 09:43:16;;;;;;;11.63;8.32;;;22.20;96.70;;;;;;4926481;29;20118;-74
2021/09/19 09:45:46;;;;;;;8.77;5.78;;;22.30;96.70;;;;;;4928352;29;20050;-75
2021/09/19 09:48:26;;;;;;;6.18;4.07;;;22.40;96.70;;;;;;4927395;29;20050;-75
2021/09/19 09:50:57;;;;;;;6.43;4.13;;;22.50;96.70;;;;;;4924377;29;20035;-76
2021/09/19 09:53:25;;;;;;;3.72;2.08;;;22.50;96.70;;;;;;4940902;28;20960;-76
2021/09/19 09:55:56;;;;;;;4.75;3.42;;;22.60;96.70;;;;;;4941277;29;20413;-76
2021/09/19 09:58:26;;;;;;;3.42;2.08;;;22.70;96.70;;;;;;4925220;29;20071;-76
2021/09/19 10:00:56;;;;;;;2.85;2.28;;;22.80;96.70;;;;;;4936587;29;20048;-76
2021/09/19 10:03:25;;;;;;;3.75;1.60;;;23.00;96.70;;;;;;4925481;29;20488;-75
2021/09/19 10:05:54;;;;;;;2.75;2.00;;;23.00;96.70;;;;;;4923631;29;20068;-76
2021/09/19 10:08:42;;;;;;;2.47;1.80;;;23.00;96.70;;;;;;4927827;29;20701;-76
2021/09/19 10:11:12;;;;;;;2.47;1.25;;;23.00;96.70;;;;;;4930980;29;20050;-75
2021/09/19 10:13:45;;;;;;;2.85;1.45;;;23.10;96.70;;;;;;4930925;29;20058;-76
2021/09/19 10:16:16;;;;;;;2.50;1.55;;;23.20;96.70;;;;;;4916182;29;20055;-76
2021/09/19 10:18:48;;;;;;;2.97;1.90;;;23.30;96.70;;;;;;4931166;29;20494;-76
2021/09/19 10:21:22;;;;;;;2.35;1.67;;;23.30;96.70;;;;;;4938820;29;20400;-76
2021/09/19 10:23:50;;;;;;;1.50;1.35;;;23.30;96.70;;;;;;4925533;29;20494;-76
2021/09/19 10:26:24;;;;;;;2.20;1.48;;;23.30;96.70;;;;;;4924186;29;20043;-76
2021/09/19 10:28:55;;;;;;;1.83;1.33;;;23.30;96.70;;;;;;4912114;29;20827;-76
2021/09/19 10:31:28;;;;;;;3.33;1.33;;;23.50;96.70;;;;;;4906522;29;20558;-75
2021/09/19 10:33:59;;;;;;;3.22;1.48;;;23.60;96.70;;;;;;4913875;29;20055;-76
2021/09/19 10:36:37;;;;;;;3.28;1.50;;;23.50;96.70;;;;;;4923186;29;20048;-76
2021/09/19 10:39:30;;;;;;;2.38;1.50;;;23.50;96.70;;;;;;4906894;29;20052;-76
2021/09/19 10:42:30;;;;;;;2.72;1.60;;;23.40;96.70;;;;;;4906146;29;20052;-76
2021/09/19 10:45:14;;;;;;;3.35;1.60;;;23.40;96.70;;;;;;4903070;29;20044;-76
2021/09/19 10:47:45;;;;;;;1.98;1.63;;;23.40;96.70;;;;;;4888912;29;20532;-76
2021/09/19 10:50:31;;;;;;;3.58;1.55;;;23.50;96.70;;;;;;4930013;29;20044;-76
2021/09/19 10:53:05;;;;;;;3.15;1.80;;;23.70;96.70;;;;;;4912591;29;20079;-76
2021/09/19 10:55:48;;;;;;;3.65;1.60;;;23.80;96.70;;;;;;4921599;29;20048;-77
2021/09/19 10:58:21;;;;;;;3.97;1.50;;;24.00;96.70;;;;;;4912621;29;20037;-76
2021/09/19 11:01:08;;;;;;;3.90;1.92;;;24.10;96.70;;;;;;4900177;29;20044;-76
2021/09/19 11:03:37;;;;;;;4.45;2.20;;;24.30;96.70;;;;;;4921140;29;20425;-76
2021/09/19 11:06:21;;;;;;;4.72;3.03;;;24.70;96.70;;;;;;4905287;29;20040;-76
2021/09/19 11:08:50;;;;;;;4.70;3.20;;;24.70;96.70;;;;;;4927485;29;20189;-76
2021/09/19 11:11:21;;;;;;;3.22;2.38;;;24.70;96.70;;;;;;4908042;29;20083;-76
2021/09/19 11:13:55;;;;;;;2.38;2.05;;;24.60;96.70;;;;;;4906796;29;20847;-76
2021/09/19 11:16:34;;;;;;;6.03;4.35;;;24.50;96.70;;;;;;4925942;29;20048;-76
2021/09/19 11:19:04;;;;;;;5.90;3.85;;;24.30;96.70;;;;;;4915683;29;20418;-76
2021/09/19 11:21:36;;;;;;;3.55;1.40;;;24.20;96.70;;;;;;4929781;29;20072;-76
2021/09/19 11:24:07;;;;;;;2.78;1.85;;;23.90;96.70;;;;;;4916674;29;20303;-76
2021/09/19 11:26:37;;;;;;;2.45;1.27;;;23.70;96.70;;;;;;4930093;29;20067;-76
2021/09/19 11:29:09;;;;;;;2.60;1.30;;;23.40;96.70;;;;;;4902769;29;20059;-76
2021/09/19 11:31:38;;;;;;;4.13;1.58;;;23.30;96.70;;;;;;4934097;29;20120;-76
2021/09/19 11:34:08;;;;;;;4.47;1.98;;;23.20;96.70;;;;;;4913297;29;20048;-78
2021/09/19 11:36:41;;;;;;;7.53;1.65;;;23.00;96.70;;;;;;4913515;29;20097;-78
2021/09/19 11:39:10;;;;;;;5.28;1.52;;;22.30;96.70;;;;;;4925188;29;20048;-78
2021/09/19 11:41:38;;;;;;;3.90;1.60;;;21.90;96.70;;;;;;4901039;29;20169;-76
2021/09/19 11:44:10;;;;;;;3.67;1.30;;;21.80;96.70;;;;;;4908325;29;20044;-76
2021/09/19 11:46:43;;;;;;;3.53;1.20;;;21.80;96.70;;;;;;4911055;29;20078;-75
2021/09/19 11:49:11;;;;;;;3.42;1.42;;;21.90;96.70;;;;;;4901742;29;20063;-76
2021/09/19 11:51:41;;;;;;;4.85;1.58;;;22.00;96.70;;;;;;4908788;29;20048;-76
2021/09/19 11:54:12;;;;;;;3.97;1.80;;;22.20;96.70;;;;;;4910296;29;20469;-76
2021/09/19 11:56:43;;;;;;;3.38;1.50;;;22.50;96.70;;;;;;4892771;29;20240;-76
2021/09/19 11:59:16;;;;;;;4.18;1.50;;;22.70;96.70;;;;;;4914573;29;20052;-76
2021/09/19 12:01:46;;;;;;;4.75;1.58;;;22.80;96.70;;;;;;4911577;29;20127;-75
2021/09/19 12:04:15;;;;;;;3.83;1.42;;;22.90;96.70;;;;;;4917381;29;20043;-76
2021/09/19 12:06:44;;;;;;;3.70;1.30;;;23.30;96.70;;;;;;4921976;29;20044;-76
2021/09/19 12:09:15;;;;;;;3.28;1.23;;;23.40;96.70;;;;;;4913313;29;20104;-76
2021/09/19 12:11:46;;;;;;;5.00;1.50;;;23.70;96.70;;;;;;4909702;29;20047;-76
2021/09/19 12:14:18;;;;;;;5.18;1.40;;;23.70;96.70;;;;;;4915953;29;20035;-76
2021/09/19 12:17:01;;;;;;;3.88;1.17;;;23.70;96.70;;;;;;4908299;29;20602;-75
2021/09/19 12:19:30;;;;;;;2.78;1.35;;;24.00;96.70;;;;;;4912955;29;20078;-76
2021/09/19 12:22:01;;;;;;;5.57;1.80;;;24.30;96.70;;;;;;4907110;29;20055;-76
2021/09/19 12:24:31;;;;;;;5.28;1.92;;;24.30;96.70;;;;;;4912987;29;20056;-76
2021/09/19 12:27:13;;;;;;;4.85;1.45;;;24.70;96.70;;;;;;4922448;29;20119;-76
2021/09/19 12:29:56;;;;;;;4.57;1.50;;;24.80;96.70;;;;;;4892933;29;20052;-77
2021/09/19 12:32:40;;;;;;;8.23;2.92;;;24.70;96.70;;;;;;4909094;29;20414;-76
2021/09/19 12:35:14;;;;;;;5.05;1.52;;;24.60;96.70;;;;;;4912716;29;20164;-77
2021/09/19 12:37:44;;;;;;;6.90;1.73;;;24.50;96.70;;;;;;4913882;29;20051;-77
2021/09/19 12:40:15;;;;;;;6.75;1.67;;;24.40;96.70;;;;;;4927821;29;20148;-76
2021/09/19 12:42:43;;;;;;;3.55;1.48;;;24.30;96.70;;;;;;4929132;29;20171;-76
2021/09/19 12:45:16;;;;;;;6.38;1.73;;;24.20;96.70;;;;;;4907418;29;20123;-78
2021/09/19 12:47:44;;;;;;;6.75;1.73;;;24.30;96.70;;;;;;4911815;29;20512;-76
2021/09/19 12:50:16;;;;;;;5.90;1.45;;;24.30;96.70;;;;;;4909173;29;20044;-76
2021/09/19 12:52:44;;;;;;;8.23;1.38;;;24.40;96.70;;;;;;4910597;29;20044;-77
2021/09/19 12:55:16;;;;;;;6.90;1.40;;;24.40;96.70;;;;;;4907231;29;20135;-76
2021/09/19 12:57:45;;;;;;;5.43;1.38;;;24.40;96.70;;;;;;4907506;29;20071;-76
2021/09/19 13:00:16;;;;;;;6.50;1.40;;;24.50;96.70;;;;;;4908232;29;20055;-77